Time;durP1;ratioP1;P1;durP2;ratioP2;P2;SDS_P1;SDS_P2;PMS_P1;PMS_P2;Temp;Humidity;BMP_temperature;BMP_pressure;BME280_temperature;BME280_humidity;BME280_pressure;Samples;Min_cycle;Max_cycle;Signal;HPM_P1;HPM_P2
2023/12/07 00:00:19;;;;;;;81.63;34.93;;;;;;;;;;2609829;54;20412;-75
2023/12/07 00:02:45;;;;;;;110.20;38.83;;;;;;;;;;2610356;47;20443;-75
2023/12/07 00:05:11;;;;;;;62.50;34.17;;;;;;;;;;2610198;39;20589;-74
2023/12/07 00:07:37;;;;;;;66.87;36.07;;;;;;;;;;2610270;54;20427;-76
2023/12/07 00:10:03;;;;;;;65.67;35.47;;;;;;;;;;2610054;54;20447;-75
2023/12/07 00:12:29;;;;;;;63.00;34.57;;;;;;;;;;2611961;54;20487;-75
2023/12/07 00:14:55;;;;;;;63.60;32.83;;;;;;;;;;2612130;39;20888;-79
2023/12/07 00:17:21;;;;;;;67.20;33.80;;;;;;;;;;2612172;47;20431;-80
2023/12/07 00:19:47;;;;;;;72.10;32.10;;;;;;;;;;2612883;54;20469;-80
2023/12/07 00:22:13;;;;;;;80.90;39.67;;;;;;;;;;2611112;54;20434;-80
2023/12/07 00:24:39;;;;;;;68.63;32.80;;;;;;;;;;2612112;54;20423;-80
2023/12/07 00:27:05;;;;;;;73.47;35.33;;;;;;;;;;2613258;48;20437;-79
2023/12/07 00:29:31;;;;;;;58.40;31.97;;;;;;;;;;2612258;54;20550;-81
2023/12/07 00:31:57;;;;;;;63.27;30.10;;;;;;;;;;2612974;39;20832;-78
2023/12/07 00:34:24;;;;;;;71.77;35.60;;;;;;;;;;2612493;54;20410;-78
2023/12/07 00:36:50;;;;;;;57.10;33.10;;;;;;;;;;2612455;54;21466;-78
2023/12/07 00:39:16;;;;;;;69.60;36.50;;;;;;;;;;2612834;54;20398;-78
2023/12/07 00:41:42;;;;;;;79.10;36.10;;;;;;;;;;2613090;47;20503;-78
2023/12/07 00:44:09;;;;;;;58.40;33.57;;;;;;;;;;2612683;54;20401;-80
2023/12/07 00:46:35;;;;;;;79.30;36.97;;;;;;;;;;2612471;39;20860;-79
2023/12/07 00:49:00;;;;;;;69.00;34.60;;;;;;;;;;2612173;54;20418;-79
2023/12/07 00:51:26;;;;;;;67.33;36.50;;;;;;;;;;2612105;54;20402;-80
2023/12/07 00:53:52;;;;;;;66.10;36.43;;;;;;;;;;2612902;54;21142;-80
2023/12/07 00:56:18;;;;;;;53.23;29.73;;;;;;;;;;2613738;54;20443;-80
2023/12/07 00:58:44;;;;;;;65.40;34.80;;;;;;;;;;2613991;54;20438;-80
2023/12/07 01:01:10;;;;;;;72.40;36.37;;;;;;;;;;2611542;47;20437;-79
2023/12/07 01:03:36;;;;;;;69.60;36.90;;;;;;;;;;2611532;39;20937;-79
2023/12/07 01:06:03;;;;;;;68.83;35.20;;;;;;;;;;2610921;39;20894;-75
2023/12/07 01:08:29;;;;;;;68.87;37.30;;;;;;;;;;2610972;54;20453;-75
2023/12/07 01:10:55;;;;;;;62.40;30.77;;;;;;;;;;2610399;54;21572;-75
2023/12/07 01:13:21;;;;;;;74.70;38.30;;;;;;;;;;2610497;54;20418;-75
2023/12/07 01:15:47;;;;;;;69.00;36.20;;;;;;;;;;2610020;54;20455;-75
2023/12/07 01:18:13;;;;;;;86.90;38.60;;;;;;;;;;2610790;39;20661;-75
2023/12/07 01:20:39;;;;;;;48.93;26.30;;;;;;;;;;2610223;54;20439;-74
2023/12/07 01:23:05;;;;;;;67.07;37.87;;;;;;;;;;2610328;39;20847;-73
2023/12/07 01:25:31;;;;;;;67.77;37.67;;;;;;;;;;2613861;54;20435;-84
2023/12/07 01:27:57;;;;;;;76.20;37.80;;;;;;;;;;2613648;54;20423;-85
2023/12/07 01:30:23;;;;;;;76.10;40.43;;;;;;;;;;2612894;54;20467;-84
2023/12/07 01:32:49;;;;;;;91.50;43.83;;;;;;;;;;2611844;54;20449;-84
2023/12/07 01:35:15;;;;;;;76.77;40.13;;;;;;;;;;2612657;46;20431;-84
2023/12/07 01:37:41;;;;;;;96.13;40.60;;;;;;;;;;2613137;54;20435;-84
2023/12/07 01:40:10;;;;;;;85.30;42.70;;;;;;;;;;2612200;54;20451;-84
2023/12/07 01:42:36;;;;;;;84.50;39.30;;;;;;;;;;2615342;54;21038;-84
2023/12/07 01:45:03;;;;;;;72.90;37.23;;;;;;;;;;2612345;39;21451;-83
2023/12/07 01:47:29;;;;;;;85.90;43.23;;;;;;;;;;2612684;54;20427;-84
2023/12/07 01:49:55;;;;;;;87.57;43.90;;;;;;;;;;2612503;39;21135;-83
2023/12/07 01:52:22;;;;;;;94.27;44.23;;;;;;;;;;2612231;54;20431;-84
2023/12/07 01:54:48;;;;;;;85.40;43.30;;;;;;;;;;2612004;54;20395;-83
2023/12/07 01:57:15;;;;;;;93.73;42.17;;;;;;;;;;2611816;47;20435;-83
2023/12/07 01:59:41;;;;;;;67.90;36.50;;;;;;;;;;2613839;47;20555;-83
2023/12/07 02:02:07;;;;;;;85.43;42.03;;;;;;;;;;2613456;54;20929;-84
2023/12/07 02:04:35;;;;;;;85.77;38.77;;;;;;;;;;2612411;54;20416;-83
2023/12/07 02:07:01;;;;;;;98.30;42.80;;;;;;;;;;2613859;39;20873;-82
2023/12/07 02:09:27;;;;;;;81.30;41.80;;;;;;;;;;2613163;54;20410;-82
2023/12/07 02:11:53;;;;;;;88.97;40.40;;;;;;;;;;2612194;54;20410;-84
2023/12/07 02:14:20;;;;;;;90.40;42.53;;;;;;;;;;2612951;47;20427;-81
2023/12/07 02:16:48;;;;;;;86.67;40.00;;;;;;;;;;2611319;54;20431;-83
2023/12/07 02:19:34;;;;;;;92.77;44.60;;;;;;;;;;2611263;47;20434;-81
2023/12/07 02:22:03;;;;;;;90.40;38.77;;;;;;;;;;2610548;54;20432;-81
2023/12/07 02:24:34;;;;;;;86.67;39.80;;;;;;;;;;2610375;54;20435;-80
2023/12/07 02:27:00;;;;;;;61.97;31.40;;;;;;;;;;2610888;54;20964;-80
2023/12/07 02:29:26;;;;;;;101.93;43.60;;;;;;;;;;2610915;54;20414;-81
2023/12/07 02:31:52;;;;;;;109.07;45.37;;;;;;;;;;2610911;46;20435;-80
2023/12/07 02:34:19;;;;;;;85.27;38.67;;;;;;;;;;2610556;54;20484;-81
2023/12/07 02:36:46;;;;;;;95.40;42.30;;;;;;;;;;2610897;54;20408;-81
2023/12/07 02:39:13;;;;;;;73.87;36.50;;;;;;;;;;2611431;54;20425;-81
2023/12/07 02:41:40;;;;;;;114.50;49.63;;;;;;;;;;2610923;54;21078;-80
2023/12/07 02:44:07;;;;;;;84.10;35.50;;;;;;;;;;2613682;39;20771;-78
2023/12/07 02:46:33;;;;;;;85.83;38.47;;;;;;;;;;2613907;54;20403;-81
2023/12/07 02:48:59;;;;;;;122.17;49.20;;;;;;;;;;2614060;54;20415;-79
2023/12/07 02:51:25;;;;;;;139.97;46.70;;;;;;;;;;2614219;54;20411;-80
2023/12/07 02:53:51;;;;;;;87.47;39.30;;;;;;;;;;2614134;54;20400;-80
2023/12/07 02:56:17;;;;;;;114.77;42.37;;;;;;;;;;2614147;54;20436;-79
2023/12/07 02:58:43;;;;;;;96.57;42.00;;;;;;;;;;2613138;54;20408;-79
2023/12/07 03:01:10;;;;;;;98.27;43.23;;;;;;;;;;2613683;54;20458;-79
2023/12/07 03:03:38;;;;;;;92.97;37.87;;;;;;;;;;2613219;54;20407;-78
2023/12/07 03:06:04;;;;;;;90.37;41.20;;;;;;;;;;2613294;54;20408;-78
2023/12/07 03:08:30;;;;;;;91.13;40.73;;;;;;;;;;2614035;54;20411;-78
2023/12/07 03:10:56;;;;;;;103.10;40.27;;;;;;;;;;2614575;54;20418;-80
2023/12/07 03:13:22;;;;;;;99.33;40.20;;;;;;;;;;2612415;54;21012;-80
2023/12/07 03:15:48;;;;;;;87.80;37.13;;;;;;;;;;2611443;54;20422;-78
2023/12/07 03:18:14;;;;;;;73.40;34.73;;;;;;;;;;2610623;54;20600;-79
2023/12/07 03:20:41;;;;;;;78.80;29.83;;;;;;;;;;2613756;47;20443;-79
2023/12/07 03:23:07;;;;;;;95.27;38.87;;;;;;;;;;2613728;39;20901;-79
2023/12/07 03:25:33;;;;;;;122.80;38.93;;;;;;;;;;2614484;54;20407;-83
2023/12/07 03:28:00;;;;;;;92.67;36.60;;;;;;;;;;2614810;54;20414;-83
2023/12/07 03:30:26;;;;;;;107.67;32.30;;;;;;;;;;2615432;39;20896;-83
2023/12/07 03:32:52;;;;;;;131.67;39.20;;;;;;;;;;2614226;47;20419;-83
2023/12/07 03:35:18;;;;;;;94.47;35.33;;;;;;;;;;2614371;54;20426;-82
2023/12/07 03:37:44;;;;;;;107.77;39.97;;;;;;;;;;2613201;54;20406;-82
2023/12/07 03:40:10;;;;;;;52.83;21.20;;;;;;;;;;2613111;54;20442;-85
2023/12/07 03:42:36;;;;;;;99.20;34.63;;;;;;;;;;2612923;54;20426;-82
2023/12/07 03:45:03;;;;;;;118.73;41.10;;;;;;;;;;2612378;39;20773;-80
2023/12/07 03:47:29;;;;;;;96.00;33.10;;;;;;;;;;2612158;31;21007;-79
2023/12/07 03:49:56;;;;;;;49.50;22.03;;;;;;;;;;2610842;39;20891;-79
2023/12/07 03:52:22;;;;;;;73.27;28.67;;;;;;;;;;2611079;54;20434;-81
2023/12/07 03:54:48;;;;;;;63.40;29.17;;;;;;;;;;2610118;54;20420;-79
2023/12/07 03:57:14;;;;;;;93.70;36.20;;;;;;;;;;2610239;54;20426;-81
2023/12/07 03:59:40;;;;;;;83.27;36.77;;;;;;;;;;2610411;48;20431;-81
2023/12/07 04:02:06;;;;;;;76.97;36.27;;;;;;;;;;2610597;54;20443;-79
2023/12/07 04:04:32;;;;;;;76.30;30.17;;;;;;;;;;2609884;54;20410;-80
2023/12/07 04:06:58;;;;;;;96.83;34.57;;;;;;;;;;2610321;54;20891;-79
2023/12/07 04:09:24;;;;;;;91.13;32.90;;;;;;;;;;2610370;54;20420;-79
2023/12/07 04:11:50;;;;;;;89.13;37.97;;;;;;;;;;2610699;39;21147;-80
2023/12/07 04:14:16;;;;;;;97.33;34.80;;;;;;;;;;2609793;54;20546;-80
2023/12/07 04:16:42;;;;;;;98.30;35.80;;;;;;;;;;2612030;54;20411;-80
2023/12/07 04:19:08;;;;;;;102.33;37.50;;;;;;;;;;2611740;39;20786;-81
2023/12/07 04:21:34;;;;;;;85.00;32.10;;;;;;;;;;2611599;54;20423;-78
2023/12/07 04:24:01;;;;;;;76.13;34.80;;;;;;;;;;2612424;39;20818;-79
2023/12/07 04:26:27;;;;;;;64.10;31.37;;;;;;;;;;2611342;47;20402;-79
2023/12/07 04:28:53;;;;;;;79.70;33.73;;;;;;;;;;2611531;47;20444;-79
2023/12/07 04:31:21;;;;;;;72.23;33.60;;;;;;;;;;2611143;54;20442;-79
2023/12/07 04:33:47;;;;;;;77.47;35.17;;;;;;;;;;2610443;39;20806;-79
2023/12/07 04:36:13;;;;;;;71.67;34.40;;;;;;;;;;2611198;54;21000;-71
2023/12/07 04:38:40;;;;;;;89.50;35.50;;;;;;;;;;2612588;54;21014;-70
2023/12/07 04:41:06;;;;;;;69.10;31.40;;;;;;;;;;2613914;54;20538;-70
2023/12/07 04:43:32;;;;;;;90.00;33.57;;;;;;;;;;2612762;54;20404;-71
2023/12/07 04:45:58;;;;;;;71.47;32.97;;;;;;;;;;2613816;54;20410;-71
2023/12/07 04:48:25;;;;;;;53.23;24.97;;;;;;;;;;2612424;54;20438;-72
2023/12/07 04:50:51;;;;;;;81.03;36.57;;;;;;;;;;2611879;54;20435;-71
2023/12/07 04:53:17;;;;;;;73.90;35.67;;;;;;;;;;2610832;54;20398;-70
2023/12/07 04:55:47;;;;;;;79.30;33.90;;;;;;;;;;2610571;39;20810;-71
2023/12/07 04:58:13;;;;;;;83.53;33.57;;;;;;;;;;2610184;54;21020;-70
2023/12/07 05:00:39;;;;;;;64.73;29.30;;;;;;;;;;2609186;54;20398;-71
2023/12/07 05:03:05;;;;;;;66.73;33.90;;;;;;;;;;2609429;46;20419;-71
2023/12/07 05:05:31;;;;;;;65.27;33.87;;;;;;;;;;2609322;39;21163;-71
2023/12/07 05:07:57;;;;;;;67.30;29.63;;;;;;;;;;2609921;54;20435;-70
2023/12/07 05:10:23;;;;;;;75.50;32.37;;;;;;;;;;2612939;54;20411;-70
2023/12/07 05:12:50;;;;;;;80.30;32.37;;;;;;;;;;2613255;54;20415;-71
2023/12/07 05:15:16;;;;;;;69.70;29.77;;;;;;;;;;2613465;54;20490;-73
2023/12/07 05:17:42;;;;;;;67.37;32.00;;;;;;;;;;2613367;54;20391;-70
2023/12/07 05:20:08;;;;;;;64.17;29.63;;;;;;;;;;2613866;54;20390;-70
2023/12/07 05:22:34;;;;;;;53.47;29.07;;;;;;;;;;2612552;54;20524;-71
2023/12/07 05:25:00;;;;;;;57.07;30.33;;;;;;;;;;2611201;54;20430;-71
2023/12/07 05:27:26;;;;;;;73.17;30.70;;;;;;;;;;2611128;54;20425;-74
2023/12/07 05:29:52;;;;;;;53.83;24.10;;;;;;;;;;2610058;39;20803;-71
2023/12/07 05:32:18;;;;;;;66.00;29.97;;;;;;;;;;2609394;54;20527;-71
2023/12/07 05:34:44;;;;;;;65.17;31.37;;;;;;;;;;2612010;54;20387;-70
2023/12/07 05:37:10;;;;;;;55.97;28.57;;;;;;;;;;2610268;54;20559;-71
2023/12/07 05:39:36;;;;;;;65.77;30.50;;;;;;;;;;2610056;54;20529;-71
2023/12/07 05:42:04;;;;;;;53.03;28.07;;;;;;;;;;2610158;54;21070;-70
2023/12/07 05:44:30;;;;;;;65.23;30.40;;;;;;;;;;2610251;39;20872;-72
2023/12/07 05:46:57;;;;;;;59.77;29.93;;;;;;;;;;2610570;54;20413;-74
2023/12/07 05:49:23;;;;;;;69.27;33.00;;;;;;;;;;2610986;54;20435;-74
2023/12/07 05:51:49;;;;;;;57.30;29.27;;;;;;;;;;2609792;54;20401;-74
2023/12/07 05:54:15;;;;;;;54.30;30.53;;;;;;;;;;2608807;54;20412;-74
2023/12/07 05:56:42;;;;;;;70.00;32.73;;;;;;;;;;2609974;54;20416;-74
2023/12/07 05:59:08;;;;;;;69.23;32.10;;;;;;;;;;2610197;47;20417;-73
2023/12/07 06:01:34;;;;;;;71.30;32.90;;;;;;;;;;2611987;54;20440;-74
2023/12/07 06:04:00;;;;;;;62.10;29.30;;;;;;;;;;2612877;54;20499;-74
2023/12/07 06:06:26;;;;;;;56.10;31.40;;;;;;;;;;2613618;54;20399;-80
2023/12/07 06:08:53;;;;;;;63.03;30.87;;;;;;;;;;2610719;31;20969;-79
2023/12/07 06:11:19;;;;;;;63.13;31.17;;;;;;;;;;2613310;54;21024;-80
2023/12/07 06:13:45;;;;;;;64.70;31.57;;;;;;;;;;2611691;54;20407;-80
2023/12/07 06:16:13;;;;;;;59.53;31.00;;;;;;;;;;2610758;54;20458;-80
2023/12/07 06:18:39;;;;;;;64.20;31.40;;;;;;;;;;2610930;54;20399;-80
2023/12/07 06:21:06;;;;;;;59.50;30.57;;;;;;;;;;2610984;54;20428;-79
2023/12/07 06:23:32;;;;;;;58.40;30.20;;;;;;;;;;2611016;54;20419;-79
2023/12/07 06:25:58;;;;;;;56.83;27.40;;;;;;;;;;2611801;54;20487;-80
2023/12/07 06:28:24;;;;;;;53.27;30.10;;;;;;;;;;2611269;54;20439;-80
2023/12/07 06:30:50;;;;;;;51.40;27.70;;;;;;;;;;2612274;54;20520;-80
2023/12/07 06:33:16;;;;;;;65.50;30.30;;;;;;;;;;2613359;54;20408;-80
2023/12/07 06:35:42;;;;;;;57.60;29.00;;;;;;;;;;2614740;54;20423;-80
2023/12/07 06:38:08;;;;;;;48.30;27.67;;;;;;;;;;2614732;54;20427;-80
2023/12/07 06:40:34;;;;;;;49.70;26.50;;;;;;;;;;2613268;54;21058;-79
2023/12/07 06:43:00;;;;;;;49.03;26.70;;;;;;;;;;2610228;54;20418;-81
2023/12/07 06:45:26;;;;;;;44.27;26.80;;;;;;;;;;2611120;54;20433;-80
2023/12/07 06:47:52;;;;;;;54.57;28.47;;;;;;;;;;2610826;54;20537;-81
2023/12/07 06:50:18;;;;;;;47.03;25.67;;;;;;;;;;2610065;54;20414;-80
2023/12/07 06:52:44;;;;;;;48.87;26.23;;;;;;;;;;2608211;47;20436;-80
2023/12/07 06:55:11;;;;;;;47.83;27.47;;;;;;;;;;2609811;47;20427;-79
2023/12/07 06:57:37;;;;;;;49.13;26.30;;;;;;;;;;2610321;54;20443;-80
2023/12/07 07:00:05;;;;;;;51.03;26.80;;;;;;;;;;2608625;47;20452;-79
2023/12/07 07:02:32;;;;;;;40.83;25.10;;;;;;;;;;2612169;54;20412;-79
2023/12/07 07:04:58;;;;;;;49.60;26.70;;;;;;;;;;2612945;54;20420;-80
2023/12/07 07:07:24;;;;;;;50.47;26.17;;;;;;;;;;2611404;54;20403;-79
2023/12/07 07:09:50;;;;;;;49.27;26.43;;;;;;;;;;2610681;54;20439;-80
2023/12/07 07:12:16;;;;;;;48.07;24.93;;;;;;;;;;2611220;46;20457;-80
2023/12/07 07:14:42;;;;;;;47.73;26.17;;;;;;;;;;2612859;54;20427;-75
2023/12/07 07:17:08;;;;;;;39.47;25.07;;;;;;;;;;2610165;54;20451;-74
2023/12/07 07:19:34;;;;;;;45.53;23.70;;;;;;;;;;2608835;54;20504;-74
2023/12/07 07:22:00;;;;;;;58.23;27.50;;;;;;;;;;2610389;54;20535;-74
2023/12/07 07:24:27;;;;;;;49.17;25.57;;;;;;;;;;2612585;54;20498;-75
2023/12/07 07:26:53;;;;;;;56.60;25.43;;;;;;;;;;2611800;54;20410;-75
2023/12/07 07:29:19;;;;;;;57.97;24.80;;;;;;;;;;2611953;54;20459;-74
2023/12/07 07:31:45;;;;;;;43.03;24.80;;;;;;;;;;2612126;54;20457;-74
2023/12/07 07:34:11;;;;;;;43.80;24.47;;;;;;;;;;2611125;54;20395;-75
2023/12/07 07:36:37;;;;;;;43.73;25.23;;;;;;;;;;2611807;54;20531;-75
2023/12/07 07:39:07;;;;;;;49.33;26.17;;;;;;;;;;2611380;54;20419;-75
2023/12/07 07:41:33;;;;;;;49.93;27.80;;;;;;;;;;2611163;47;20510;-75
2023/12/07 07:43:59;;;;;;;48.90;27.17;;;;;;;;;;2611705;54;20988;-75
2023/12/07 07:46:25;;;;;;;47.13;24.77;;;;;;;;;;2612919;54;20402;-75
2023/12/07 07:48:51;;;;;;;39.23;24.10;;;;;;;;;;2614050;54;20419;-75
2023/12/07 07:51:17;;;;;;;42.90;25.20;;;;;;;;;;2613398;39;20923;-76
2023/12/07 07:53:43;;;;;;;40.67;26.67;;;;;;;;;;2606800;46;20479;-75
2023/12/07 07:56:09;;;;;;;49.93;26.10;;;;;;;;;;2613020;54;20514;-74
2023/12/07 07:58:35;;;;;;;45.27;26.33;;;;;;;;;;2611948;54;20445;-74
2023/12/07 08:01:01;;;;;;;44.90;25.70;;;;;;;;;;2612546;54;20426;-75
2023/12/07 08:03:27;;;;;;;45.47;26.83;;;;;;;;;;2612403;54;20562;-75
2023/12/07 08:05:53;;;;;;;44.37;25.47;;;;;;;;;;2611152;54;20419;-77
2023/12/07 08:08:19;;;;;;;45.00;24.63;;;;;;;;;;2611496;47;20439;-78
2023/12/07 08:10:45;;;;;;;44.10;27.50;;;;;;;;;;2611733;54;20407;-78
2023/12/07 08:13:11;;;;;;;42.43;25.70;;;;;;;;;;2612956;54;20422;-77
2023/12/07 08:15:38;;;;;;;45.23;27.00;;;;;;;;;;2613643;54;20394;-77
2023/12/07 08:18:04;;;;;;;45.67;25.30;;;;;;;;;;2612768;54;21175;-78
2023/12/07 08:20:30;;;;;;;44.03;23.27;;;;;;;;;;2611702;54;20442;-79
2023/12/07 08:22:56;;;;;;;48.13;23.70;;;;;;;;;;2610937;39;20909;-78
2023/12/07 08:25:22;;;;;;;42.60;22.97;;;;;;;;;;2611700;54;20920;-72
2023/12/07 08:27:48;;;;;;;36.70;24.43;;;;;;;;;;2612860;54;20419;-71
2023/12/07 08:30:14;;;;;;;41.83;25.90;;;;;;;;;;2610531;54;20419;-72
2023/12/07 08:32:40;;;;;;;40.03;23.80;;;;;;;;;;2610706;54;20422;-72
2023/12/07 08:35:06;;;;;;;36.90;22.83;;;;;;;;;;2613861;54;20416;-73
2023/12/07 08:37:33;;;;;;;37.37;23.80;;;;;;;;;;2610675;54;20396;-71
2023/12/07 08:39:59;;;;;;;36.57;23.27;;;;;;;;;;2610903;54;20467;-72
2023/12/07 08:42:26;;;;;;;44.03;24.57;;;;;;;;;;2610471;39;20899;-73
2023/12/07 08:44:52;;;;;;;35.63;23.43;;;;;;;;;;2610945;54;20424;-72
2023/12/07 08:47:18;;;;;;;37.27;23.13;;;;;;;;;;2612198;47;20401;-72
2023/12/07 08:49:44;;;;;;;41.57;26.30;;;;;;;;;;2611299;39;20923;-71
2023/12/07 08:52:11;;;;;;;40.33;24.53;;;;;;;;;;2609548;54;20467;-71
2023/12/07 08:54:37;;;;;;;39.90;24.73;;;;;;;;;;2609526;54;20436;-71
2023/12/07 08:57:03;;;;;;;41.90;24.77;;;;;;;;;;2609109;54;20397;-71
2023/12/07 08:59:30;;;;;;;47.70;25.67;;;;;;;;;;2608967;39;20915;-71
2023/12/07 09:01:56;;;;;;;40.83;25.40;;;;;;;;;;2609771;54;20507;-71
2023/12/07 09:04:22;;;;;;;40.60;25.40;;;;;;;;;;2610515;54;20475;-72
2023/12/07 09:06:48;;;;;;;45.27;23.20;;;;;;;;;;2609252;54;20420;-71
2023/12/07 09:09:14;;;;;;;38.30;25.97;;;;;;;;;;2609769;54;20466;-71
2023/12/07 09:11:40;;;;;;;43.10;26.07;;;;;;;;;;2609629;54;20914;-71
2023/12/07 09:14:06;;;;;;;44.63;24.30;;;;;;;;;;2609637;54;20400;-70
2023/12/07 09:16:32;;;;;;;47.97;26.17;;;;;;;;;;2610571;54;20441;-76
2023/12/07 09:18:58;;;;;;;42.87;26.60;;;;;;;;;;2609648;54;20967;-77
2023/12/07 09:21:24;;;;;;;44.63;26.63;;;;;;;;;;2610168;47;20428;-76
2023/12/07 09:23:50;;;;;;;43.90;24.87;;;;;;;;;;2609964;54;21093;-76
2023/12/07 09:26:16;;;;;;;40.13;25.57;;;;;;;;;;2610054;54;20419;-77
2023/12/07 09:28:42;;;;;;;37.40;24.53;;;;;;;;;;2610892;47;22113;-77
2023/12/07 09:31:08;;;;;;;44.07;24.70;;;;;;;;;;2610206;54;20450;-77
2023/12/07 09:33:34;;;;;;;38.63;23.73;;;;;;;;;;2608631;54;20417;-76
2023/12/07 09:36:03;;;;;;;31.27;19.80;;;;;;;;;;2610208;54;20447;-75
2023/12/07 09:38:29;;;;;;;44.30;24.40;;;;;;;;;;2609884;47;20442;-75
2023/12/07 09:40:55;;;;;;;35.30;20.90;;;;;;;;;;2609878;46;20509;-76
2023/12/07 09:43:22;;;;;;;31.63;20.47;;;;;;;;;;2609645;39;20782;-74
2023/12/07 09:45:48;;;;;;;30.90;20.30;;;;;;;;;;2608944;54;20459;-74
2023/12/07 09:48:14;;;;;;;28.83;19.00;;;;;;;;;;2610301;54;20410;-75
2023/12/07 09:50:40;;;;;;;29.63;21.67;;;;;;;;;;2613131;54;20963;-74
2023/12/07 09:53:08;;;;;;;30.70;21.63;;;;;;;;;;2610265;54;20440;-74
2023/12/07 09:55:34;;;;;;;24.70;17.70;;;;;;;;;;2611006;54;20455;-74
2023/12/07 09:58:00;;;;;;;20.93;15.17;;;;;;;;;;2610841;54;20415;-76
2023/12/07 10:00:26;;;;;;;21.43;15.70;;;;;;;;;;2612467;46;20435;-75
2023/12/07 10:02:53;;;;;;;23.57;15.80;;;;;;;;;;2611218;39;20795;-74
2023/12/07 10:05:19;;;;;;;16.60;12.53;;;;;;;;;;2612667;54;20884;-75
2023/12/07 10:07:49;;;;;;;21.30;14.33;;;;;;;;;;2611999;54;20412;-76
2023/12/07 10:10:15;;;;;;;19.80;14.93;;;;;;;;;;2610969;46;20446;-75
2023/12/07 10:12:55;;;;;;;19.73;12.93;;;;;;;;;;2612269;54;20400;-74
2023/12/07 10:15:21;;;;;;;17.97;13.57;;;;;;;;;;2611830;47;20839;-75
2023/12/07 10:17:49;;;;;;;16.73;13.80;;;;;;;;;;2613274;54;20399;-75
2023/12/07 10:20:19;;;;;;;16.90;13.60;;;;;;;;;;2611269;39;20631;-76
2023/12/07 10:22:48;;;;;;;15.53;12.27;;;;;;;;;;2612397;54;20450;-77
2023/12/07 10:25:14;;;;;;;16.17;13.73;;;;;;;;;;2610816;54;21136;-73
2023/12/07 10:27:43;;;;;;;13.77;9.77;;;;;;;;;;2611672;54;20384;-72
2023/12/07 10:30:11;;;;;;;16.87;12.60;;;;;;;;;;2611983;39;20966;-72
2023/12/07 10:32:38;;;;;;;19.47;13.23;;;;;;;;;;2610053;54;20992;-71
2023/12/07 10:35:05;;;;;;;17.10;11.73;;;;;;;;;;2610878;54;20679;-72
2023/12/07 10:37:31;;;;;;;12.40;10.23;;;;;;;;;;2611607;54;20442;-71
2023/12/07 10:39:57;;;;;;;19.60;11.47;;;;;;;;;;2611423;54;20459;-72
2023/12/07 10:42:25;;;;;;;17.13;12.13;;;;;;;;;;2613196;31;20860;-74
2023/12/07 10:44:54;;;;;;;12.10;10.00;;;;;;;;;;2611363;54;20535;-75
2023/12/07 10:47:22;;;;;;;14.70;12.03;;;;;;;;;;2612217;54;20463;-77
2023/12/07 10:49:51;;;;;;;14.87;10.17;;;;;;;;;;2610076;47;20467;-76
2023/12/07 10:52:20;;;;;;;13.30;11.40;;;;;;;;;;2611896;39;20682;-76
2023/12/07 10:55:08;;;;;;;12.17;10.17;;;;;;;;;;2611215;54;20410;-75
2023/12/07 10:57:35;;;;;;;13.67;10.57;;;;;;;;;;2608881;47;20503;-76
2023/12/07 11:00:01;;;;;;;19.23;11.40;;;;;;;;;;2610059;54;20411;-76
2023/12/07 11:02:28;;;;;;;14.47;11.43;;;;;;;;;;2612657;54;20423;-74
2023/12/07 11:04:58;;;;;;;14.50;12.10;;;;;;;;;;2611320;54;20436;-77
2023/12/07 11:07:25;;;;;;;15.93;12.30;;;;;;;;;;2610123;47;20487;-77
2023/12/07 11:10:03;;;;;;;15.23;11.90;;;;;;;;;;2611976;39;20831;-76
2023/12/07 11:12:47;;;;;;;12.73;10.67;;;;;;;;;;2610697;54;20410;-76
2023/12/07 11:15:14;;;;;;;15.17;11.83;;;;;;;;;;2611422;47;20419;-76
2023/12/07 11:17:53;;;;;;;15.80;10.53;;;;;;;;;;2611620;54;21311;-76
2023/12/07 11:20:43;;;;;;;10.97;9.77;;;;;;;;;;2612148;39;20875;-76
2023/12/07 11:23:09;;;;;;;11.60;10.40;;;;;;;;;;2611308;54;20968;-76
2023/12/07 11:25:36;;;;;;;12.07;10.43;;;;;;;;;;2613076;54;20430;-76
2023/12/07 11:28:03;;;;;;;13.50;9.83;;;;;;;;;;2611373;54;20431;-76
2023/12/07 11:30:31;;;;;;;15.47;9.63;;;;;;;;;;2612738;54;20421;-76
2023/12/07 11:32:57;;;;;;;10.60;9.20;;;;;;;;;;2611140;54;20431;-75
2023/12/07 11:35:23;;;;;;;13.97;10.20;;;;;;;;;;2612352;54;20416;-81
2023/12/07 11:38:06;;;;;;;17.30;11.60;;;;;;;;;;2613046;54;20416;-79
2023/12/07 11:40:32;;;;;;;11.57;10.03;;;;;;;;;;2613840;39;20833;-78
2023/12/07 11:43:02;;;;;;;10.20;9.20;;;;;;;;;;2612841;39;20778;-80
2023/12/07 11:45:41;;;;;;;12.37;10.57;;;;;;;;;;2613366;54;20422;-78
2023/12/07 11:48:11;;;;;;;14.60;10.40;;;;;;;;;;2611208;54;21936;-78
2023/12/07 11:50:55;;;;;;;11.77;10.57;;;;;;;;;;2611375;47;20610;-78
2023/12/07 11:53:24;;;;;;;12.80;10.57;;;;;;;;;;2613059;47;20427;-78
2023/12/07 11:55:50;;;;;;;15.10;9.87;;;;;;;;;;2613850;54;21011;-84
2023/12/07 11:58:16;;;;;;;13.03;11.70;;;;;;;;;;2614159;54;20524;-84
2023/12/07 12:00:44;;;;;;;12.17;10.87;;;;;;;;;;2612433;47;20438;-83
2023/12/07 12:03:11;;;;;;;13.90;11.23;;;;;;;;;;2616430;47;20457;-82
2023/12/07 12:05:38;;;;;;;13.03;11.00;;;;;;;;;;2614591;54;20475;-85
2023/12/07 12:08:05;;;;;;;13.03;10.87;;;;;;;;;;2614710;54;20411;-85
2023/12/07 12:10:31;;;;;;;13.20;11.10;;;;;;;;;;2614087;54;20435;-88
2023/12/07 12:12:57;;;;;;;12.83;9.80;;;;;;;;;;2615988;54;20404;-87
2023/12/07 12:15:23;;;;;;;11.07;10.00;;;;;;;;;;2615704;54;20432;-84
2023/12/07 12:17:49;;;;;;;10.47;9.37;;;;;;;;;;2615888;46;20489;-86
2023/12/07 12:20:17;;;;;;;12.50;9.83;;;;;;;;;;2614818;47;20420;-86
2023/12/07 12:22:43;;;;;;;15.37;11.00;;;;;;;;;;2614400;54;20466;-86
2023/12/07 12:25:10;;;;;;;12.60;10.60;;;;;;;;;;2614453;54;20435;-85
2023/12/07 12:27:36;;;;;;;10.17;9.17;;;;;;;;;;2615334;54;20475;-87
2023/12/07 12:30:03;;;;;;;13.50;10.23;;;;;;;;;;2616078;39;20835;-84
2023/12/07 12:32:33;;;;;;;10.43;9.30;;;;;;;;;;2615730;47;20435;-87
2023/12/07 12:34:59;;;;;;;12.50;11.30;;;;;;;;;;2616050;54;20433;-86
2023/12/07 12:37:26;;;;;;;11.57;10.37;;;;;;;;;;2614842;54;20494;-86
2023/12/07 12:39:52;;;;;;;13.50;10.87;;;;;;;;;;2615826;54;20459;-87
2023/12/07 12:42:18;;;;;;;10.90;9.90;;;;;;;;;;2616274;54;20458;-86
2023/12/07 12:44:46;;;;;;;14.57;10.90;;;;;;;;;;2614915;47;20429;-72
2023/12/07 12:47:12;;;;;;;14.23;10.93;;;;;;;;;;2612253;54;21171;-76
2023/12/07 12:49:39;;;;;;;11.30;10.10;;;;;;;;;;2612430;46;20999;-78
2023/12/07 12:52:09;;;;;;;11.90;10.73;;;;;;;;;;2612387;54;20505;-77
2023/12/07 12:54:35;;;;;;;14.57;11.03;;;;;;;;;;2613563;39;20690;-77
2023/12/07 12:57:02;;;;;;;14.07;12.07;;;;;;;;;;2612234;54;20467;-75
2023/12/07 12:59:28;;;;;;;15.70;12.50;;;;;;;;;;2610905;54;21118;-77
2023/12/07 13:01:54;;;;;;;11.97;10.77;;;;;;;;;;2611389;39;21195;-76
2023/12/07 13:04:20;;;;;;;12.57;10.20;;;;;;;;;;2613515;54;20426;-76
2023/12/07 13:06:46;;;;;;;15.23;11.37;;;;;;;;;;2612830;54;20407;-72
2023/12/07 13:09:12;;;;;;;13.37;12.07;;;;;;;;;;2612731;54;20525;-73
2023/12/07 13:11:38;;;;;;;16.93;11.93;;;;;;;;;;2612013;39;20830;-73
2023/12/07 13:14:07;;;;;;;13.77;9.80;;;;;;;;;;2611878;46;20849;-72
2023/12/07 13:16:33;;;;;;;15.00;12.00;;;;;;;;;;2609598;54;20462;-72
2023/12/07 13:18:59;;;;;;;17.60;12.03;;;;;;;;;;2611229;54;20426;-71
2023/12/07 13:21:25;;;;;;;13.67;11.13;;;;;;;;;;2611108;47;20403;-72
2023/12/07 13:23:51;;;;;;;11.80;10.30;;;;;;;;;;2612339;54;20404;-72
2023/12/07 13:26:17;;;;;;;11.80;10.60;;;;;;;;;;2611852;54;20406;-71
2023/12/07 13:28:43;;;;;;;14.97;12.37;;;;;;;;;;2611616;54;20420;-73
2023/12/07 13:31:09;;;;;;;12.57;11.30;;;;;;;;;;2611852;54;20835;-72
2023/12/07 13:33:35;;;;;;;13.63;11.20;;;;;;;;;;2611391;54;20575;-73
2023/12/07 13:36:02;;;;;;;13.20;11.73;;;;;;;;;;2612241;47;20971;-72
2023/12/07 13:38:30;;;;;;;12.10;10.90;;;;;;;;;;2612759;54;20414;-72
2023/12/07 13:40:56;;;;;;;15.63;11.57;;;;;;;;;;2611982;46;20493;-72
2023/12/07 13:43:24;;;;;;;12.90;10.30;;;;;;;;;;2610954;47;20426;-73
2023/12/07 13:45:50;;;;;;;16.20;11.20;;;;;;;;;;2611407;39;20973;-71
2023/12/07 13:48:16;;;;;;;19.73;11.67;;;;;;;;;;2612088;54;20430;-72
2023/12/07 13:50:43;;;;;;;11.67;10.60;;;;;;;;;;2610182;46;20442;-73
2023/12/07 13:53:10;;;;;;;14.83;10.77;;;;;;;;;;2610491;54;20461;-71
2023/12/07 13:55:37;;;;;;;13.93;11.80;;;;;;;;;;2612788;50;20452;-73
2023/12/07 13:58:03;;;;;;;11.50;10.40;;;;;;;;;;2611553;54;20425;-73
2023/12/07 14:00:29;;;;;;;12.47;11.20;;;;;;;;;;2612566;54;20481;-73
2023/12/07 14:02:55;;;;;;;15.03;10.77;;;;;;;;;;2610846;54;20984;-72
2023/12/07 14:05:22;;;;;;;15.90;10.70;;;;;;;;;;2611444;46;20458;-72
2023/12/07 14:07:49;;;;;;;13.27;12.07;;;;;;;;;;2611145;54;20469;-74
2023/12/07 14:10:15;;;;;;;12.60;10.50;;;;;;;;;;2612442;54;20974;-72
2023/12/07 14:12:41;;;;;;;11.33;10.17;;;;;;;;;;2610839;47;20458;-74